Time;durP1;ratioP1;P1;durP2;ratioP2;P2;SDS_P1;SDS_P2;PMS_P1;PMS_P2;Temp;Humidity;BMP_temperature;BMP_pressure;BME280_temperature;BME280_humidity;BME280_pressure;Samples;Min_cycle;Max_cycle;Signal;HPM_P1;HPM_P2
2022/03/30 00:01:35;;;;;;;1999.90;999.90;;;;;;;1.13;43.89;100374.75;4918045;28;97734;-76
2022/03/30 00:04:03;;;;;;;1999.90;999.90;;;;;;;1.09;43.66;100370.16;4927464;28;100605;-79
2022/03/30 00:06:31;;;;;;;1999.90;999.90;;;;;;;1.07;43.97;100371.81;4917145;28;99350;-78
2022/03/30 00:08:58;;;;;;;1999.90;999.90;;;;;;;1.04;43.74;100371.66;4917592;28;97565;-80
2022/03/30 00:11:26;;;;;;;1999.90;999.90;;;;;;;1.02;44.00;100368.97;4916277;28;97560;-77
2022/03/30 00:13:56;;;;;;;1999.90;999.90;;;;;;;1.04;44.17;100362.09;4915263;28;100500;-78
2022/03/30 00:16:25;;;;;;;1999.90;999.90;;;;;;;1.03;44.26;100364.63;4917619;28;98879;-76
2022/03/30 00:18:52;;;;;;;1999.90;999.90;;;;;;;1.02;44.04;100363.72;4919260;28;97777;-77
2022/03/30 00:21:20;;;;;;;1999.90;999.90;;;;;;;0.96;43.97;100366.00;4918841;28;99382;-76
2022/03/30 00:23:48;;;;;;;1999.90;999.90;;;;;;;0.94;44.35;100361.53;4918505;28;97559;-78
2022/03/30 00:26:16;;;;;;;1999.90;999.90;;;;;;;0.90;44.33;100360.47;4932835;28;99623;-78
2022/03/30 00:28:44;;;;;;;1999.90;999.90;;;;;;;0.89;44.26;100357.75;4917773;28;97748;-75
2022/03/30 00:31:13;;;;;;;1999.90;999.90;;;;;;;0.86;44.26;100357.59;4911583;28;98719;-74
2022/03/30 00:33:41;;;;;;;1999.90;999.90;;;;;;;0.83;44.40;100357.44;4911803;28;97641;-75
2022/03/30 00:36:08;;;;;;;1999.90;999.90;;;;;;;0.78;44.29;100351.94;4927156;28;99422;-78
2022/03/30 00:38:36;;;;;;;1999.90;999.90;;;;;;;0.70;44.44;100352.38;4905222;28;97869;-78
2022/03/30 00:41:04;;;;;;;1999.90;999.90;;;;;;;0.66;44.54;100360.88;4913501;28;97221;-77
2022/03/30 00:43:33;;;;;;;1999.90;999.90;;;;;;;0.63;44.23;100348.50;4919885;28;100308;-80
2022/03/30 00:46:01;;;;;;;1999.90;999.90;;;;;;;0.55;44.73;100354.16;4917400;28;98725;-78
2022/03/30 00:48:30;;;;;;;1999.90;999.90;;;;;;;0.50;44.58;100355.66;4910940;28;98546;-78
2022/03/30 00:50:59;;;;;;;1999.90;999.90;;;;;;;0.45;44.73;100357.13;4905403;28;98070;-77
2022/03/30 00:53:26;;;;;;;1999.90;999.90;;;;;;;0.43;44.74;100353.50;4912505;28;98693;-76
2022/03/30 00:55:55;;;;;;;1999.90;999.90;;;;;;;0.40;44.56;100353.31;4915086;28;98980;-77
2022/03/30 00:58:23;;;;;;;1999.90;999.90;;;;;;;0.38;44.56;100355.88;4914380;28;97870;-77
2022/03/30 01:00:50;;;;;;;1999.90;999.90;;;;;;;0.33;44.76;100352.09;4913751;28;99636;-77
2022/03/30 01:03:19;;;;;;;1999.90;999.90;;;;;;;0.30;44.94;100351.03;4915512;28;99460;-76
2022/03/30 01:05:48;;;;;;;1999.90;999.90;;;;;;;0.29;44.85;100355.38;4915796;28;98586;-74
2022/03/30 01:08:16;;;;;;;1999.90;999.90;;;;;;;0.23;44.80;100353.28;4914046;28;97522;-78
2022/03/30 01:10:43;;;;;;;1999.90;999.90;;;;;;;0.23;44.88;100354.09;4914641;28;97956;-80
2022/03/30 01:13:12;;;;;;;1999.90;999.90;;;;;;;0.21;44.92;100352.28;4913496;28;98091;-75
2022/03/30 01:15:40;;;;;;;1999.90;999.90;;;;;;;0.16;44.60;100343.28;4918001;28;98692;-76
2022/03/30 01:18:08;;;;;;;1999.90;999.90;;;;;;;0.13;44.96;100342.22;4912112;28;97947;-76
2022/03/30 01:20:36;;;;;;;1999.90;999.90;;;;;;;0.12;45.14;100343.94;4918383;28;97719;-76
2022/03/30 01:23:05;;;;;;;1999.90;999.90;;;;;;;0.15;44.80;100338.88;4914152;28;99817;-77
2022/03/30 01:25:33;;;;;;;1999.90;999.90;;;;;;;0.16;44.98;100337.16;4916202;28;98314;-78
2022/03/30 01:28:01;;;;;;;1999.90;999.90;;;;;;;0.18;44.84;100332.91;4916287;28;97307;-75
2022/03/30 01:33:14;;;;;;;1999.90;999.90;;;;;;;0.17;44.84;100324.16;4916642;28;97377;-77
2022/03/30 01:35:42;;;;;;;1999.90;999.90;;;;;;;0.17;44.84;100324.16;4919667;28;100611;-77
2022/03/30 01:38:11;;;;;;;1999.90;999.90;;;;;;;0.15;44.88;100317.97;4919438;28;97341;-76
2022/03/30 01:40:40;;;;;;;1999.90;999.90;;;;;;;0.15;44.85;100320.56;4905887;28;97840;-78
2022/03/30 01:43:07;;;;;;;1999.90;999.90;;;;;;;0.14;45.16;100316.16;4922182;28;98973;-76
2022/03/30 01:45:36;;;;;;;1999.90;999.90;;;;;;;0.13;45.15;100316.06;4921948;28;97951;-78
2022/03/30 01:48:04;;;;;;;1999.90;999.90;;;;;;;0.09;45.23;100314.09;4923298;28;96885;-76
2022/03/30 01:50:33;;;;;;;1999.90;999.90;;;;;;;0.04;45.25;100313.84;4928431;28;96906;-76
2022/03/30 01:53:01;;;;;;;1999.90;999.90;;;;;;;0.01;45.37;100308.44;4921808;28;100332;-77
2022/03/30 01:55:30;;;;;;;1999.90;999.90;;;;;;;0.01;45.19;100303.19;4944004;28;99517;-77
2022/03/30 01:57:58;;;;;;;1999.90;999.90;;;;;;;0.01;45.24;100305.81;4924652;28;97873;-78
2022/03/30 02:00:26;;;;;;;1999.90;999.90;;;;;;;-0.01;45.19;100310.06;4921676;28;98532;-76
2022/03/30 02:02:54;;;;;;;1999.90;999.90;;;;;;;0.00;45.24;100304.03;4920574;28;99873;-77
2022/03/30 02:05:22;;;;;;;1999.90;999.90;;;;;;;0.00;45.40;100306.66;4925429;28;99361;-76
2022/03/30 02:07:50;;;;;;;1999.90;999.90;;;;;;;-0.02;45.34;100305.66;4922998;28;96847;-75
2022/03/30 02:10:18;;;;;;;1999.90;999.90;;;;;;;-0.05;45.36;100305.50;4923511;28;97182;-77
2022/03/30 02:12:47;;;;;;;1999.90;999.90;;;;;;;-0.10;45.39;100301.69;4916955;28;100402;-76
2022/03/30 02:15:15;;;;;;;1999.90;999.90;;;;;;;-0.12;45.42;100302.47;4920082;28;99339;-76
2022/03/30 02:17:42;;;;;;;1999.90;999.90;;;;;;;-0.12;45.72;100302.47;4922460;28;97074;-77
2022/03/30 02:20:12;;;;;;;1999.90;999.90;;;;;;;-0.12;45.59;100295.50;4920013;28;97392;-74
2022/03/30 02:22:40;;;;;;;1999.90;999.90;;;;;;;-0.12;45.35;100297.22;4918557;28;98013;-77
2022/03/30 02:25:09;;;;;;;1999.90;999.90;;;;;;;-0.15;45.43;100297.94;4926760;28;98322;-75
2022/03/30 02:27:37;;;;;;;1999.90;999.90;;;;;;;-0.16;45.25;100293.53;4918791;28;97366;-76
2022/03/30 02:30:08;;;;;;;1999.90;999.90;;;;;;;-0.17;45.20;100293.44;4920902;28;98858;-75
2022/03/30 02:32:36;;;;;;;1999.90;999.90;;;;;;;-0.18;45.18;100294.25;4931468;28;99474;-74
2022/03/30 02:35:06;;;;;;;1999.90;999.90;;;;;;;-0.21;45.67;100289.75;4930477;28;97697;-75
2022/03/30 02:37:34;;;;;;;1999.90;999.90;;;;;;;-0.23;45.56;100296.59;4925715;28;96983;-77
2022/03/30 02:40:01;;;;;;;1999.90;999.90;;;;;;;-0.27;45.39;100288.50;4919684;28;97549;-77
2022/03/30 02:42:29;;;;;;;1999.90;999.90;;;;;;;-0.27;45.52;100293.75;4922053;28;97705;-75
2022/03/30 02:44:57;;;;;;;1999.90;999.90;;;;;;;-0.28;45.72;100289.34;4919113;28;100838;-76
2022/03/30 02:50:08;;;;;;;1999.90;999.90;;;;;;;-0.33;45.47;100286.47;4916214;28;97897;-77
2022/03/30 02:52:36;;;;;;;1999.90;999.90;;;;;;;-0.35;45.40;100282.84;4920279;28;99676;-77
2022/03/30 02:55:05;;;;;;;1999.90;999.90;;;;;;;-0.36;45.47;100275.84;4919383;28;100522;-75
2022/03/30 02:57:32;;;;;;;1999.90;999.90;;;;;;;-0.38;46.02;100277.47;4919992;28;99116;-77
2022/03/30 03:00:00;;;;;;;1999.90;999.90;;;;;;;-0.39;45.57;100265.19;4918831;28;97165;-77
2022/03/30 03:02:29;;;;;;;1999.90;999.90;;;;;;;-0.44;45.98;100265.75;4917363;28;99097;-79
2022/03/30 03:04:56;;;;;;;1999.90;999.90;;;;;;;-0.49;46.04;100275.06;4917222;28;100355;-77
2022/03/30 03:07:24;;;;;;;1999.90;999.90;;;;;;;-0.54;46.02;100272.19;4918614;28;97397;-76
2022/03/30 03:09:52;;;;;;;1999.90;999.90;;;;;;;-0.51;45.89;100279.28;4916616;28;97727;-76
2022/03/30 03:12:21;;;;;;;1999.90;999.90;;;;;;;-0.51;46.26;100276.66;4921689;28;97713;-77
2022/03/30 03:14:49;;;;;;;1999.90;999.90;;;;;;;-0.51;46.23;100271.44;4916465;28;99613;-76
2022/03/30 03:17:16;;;;;;;1999.90;999.90;;;;;;;-0.51;46.02;100264.50;4918630;28;97913;-78
2022/03/30 03:19:45;;;;;;;1999.90;999.90;;;;;;;-0.50;46.27;100273.25;4917518;28;97841;-77
2022/03/30 03:22:13;;;;;;;1999.90;999.90;;;;;;;-0.48;45.86;100269.03;4921463;28;97937;-77
2022/03/30 03:24:41;;;;;;;1999.90;999.90;;;;;;;-0.49;45.98;100273.34;4922575;28;99220;-76
2022/03/30 03:27:10;;;;;;;1999.90;999.90;;;;;;;-0.48;46.07;100269.91;4921244;28;97196;-76
2022/03/30 03:29:37;;;;;;;1999.90;999.90;;;;;;;-0.47;45.69;100268.19;4920852;28;97312;-75
2022/03/30 03:32:06;;;;;;;1999.90;999.90;;;;;;;-0.48;46.00;100269.91;4922819;28;99063;-77
2022/03/30 03:34:34;;;;;;;1999.90;999.90;;;;;;;-0.50;46.16;100265.44;4923822;28;98978;-75
2022/03/30 03:37:03;;;;;;;1999.90;999.90;;;;;;;-0.51;45.81;100264.50;4921755;28;96830;-75
2022/03/30 03:39:31;;;;;;;1999.90;999.90;;;;;;;-0.51;45.89;100268.84;4921232;28;99242;-78
2022/03/30 03:41:59;;;;;;;1999.90;999.90;;;;;;;-0.53;45.90;100271.38;4920382;28;97703;-75
2022/03/30 03:44:26;;;;;;;1999.90;999.90;;;;;;;-0.53;45.62;100270.47;4902260;28;98108;-74
2022/03/30 03:46:54;;;;;;;1999.90;999.90;;;;;;;-0.56;45.83;100262.44;4917917;28;97599;-74
2022/03/30 03:49:22;;;;;;;1999.90;999.90;;;;;;;-0.57;46.17;100261.53;4926355;28;98139;-78
2022/03/30 03:51:50;;;;;;;1999.90;999.90;;;;;;;-0.58;46.41;100261.47;4920611;28;97743;-75
2022/03/30 03:54:19;;;;;;;1999.90;999.90;;;;;;;-0.61;45.75;100254.34;4917034;28;98814;-77
2022/03/30 03:56:47;;;;;;;1999.90;999.90;;;;;;;-0.60;46.13;100252.63;4916984;28;97682;-77
2022/03/30 03:59:15;;;;;;;1999.90;999.90;;;;;;;-0.60;46.01;100253.53;4917055;28;96810;-77
2022/03/30 04:01:42;;;;;;;1999.90;999.90;;;;;;;-0.61;46.46;100246.50;4919162;28;97726;-76
2022/03/30 04:04:10;;;;;;;1999.90;999.90;;;;;;;-0.59;45.83;100250.09;4913050;28;100425;-76
2022/03/30 04:06:38;;;;;;;1999.90;999.90;;;;;;;-0.61;46.35;100243.00;4918116;28;98829;-76
2022/03/30 04:09:06;;;;;;;1999.90;999.90;;;;;;;-0.60;45.90;100243.09;4915572;28;97844;-77
2022/03/30 04:11:35;;;;;;;1999.90;999.90;;;;;;;-0.63;45.75;100237.72;4915622;28;100257;-75
2022/03/30 04:14:02;;;;;;;1999.90;999.90;;;;;;;-0.64;46.10;100246.34;4917022;28;98904;-74
2022/03/30 04:16:30;;;;;;;1999.90;999.90;;;;;;;-0.64;46.24;100234.97;4920028;28;98139;-75
2022/03/30 04:18:58;;;;;;;1999.90;999.90;;;;;;;-0.65;46.28;100233.19;4918984;28;96925;-76
2022/03/30 04:21:26;;;;;;;1999.90;999.90;;;;;;;-0.65;45.95;100233.19;4914862;28;100963;-77
2022/03/30 04:23:54;;;;;;;1999.90;999.90;;;;;;;-0.65;45.95;100236.72;4918605;28;98074;-76
2022/03/30 04:26:21;;;;;;;1999.90;999.90;;;;;;;-0.67;46.61;100230.50;4918805;28;98675;-76
2022/03/30 04:28:50;;;;;;;1999.90;999.90;;;;;;;-0.68;46.66;100225.19;4917165;28;98071;-77
2022/03/30 04:31:18;;;;;;;1999.90;999.90;;;;;;;-0.69;46.47;100232.13;4897303;28;101467;-78
2022/03/30 04:33:46;;;;;;;1999.90;999.90;;;;;;;-0.71;46.09;100230.22;4917070;28;98232;-78
2022/03/30 04:36:14;;;;;;;1999.90;999.90;;;;;;;-0.71;46.26;100231.13;4916229;28;97234;-77
2022/03/30 04:38:42;;;;;;;1999.90;999.90;;;;;;;-0.71;46.16;100223.31;4914311;28;97630;-76
2022/03/30 04:41:09;;;;;;;1999.90;999.90;;;;;;;-0.70;46.31;100229.44;4915820;28;97957;-75
2022/03/30 04:43:37;;;;;;;1999.90;999.90;;;;;;;-0.72;46.57;100226.72;4916180;28;99516;-75
2022/03/30 04:46:08;;;;;;;1999.90;999.90;;;;;;;-0.74;46.65;100232.69;4916289;28;98109;-76
2022/03/30 04:48:36;;;;;;;1999.90;999.90;;;;;;;-0.74;46.75;100227.44;4928663;28;99414;-76
2022/03/30 04:51:04;;;;;;;1999.90;999.90;;;;;;;-0.74;46.64;100222.22;4910609;28;98704;-76
2022/03/30 04:53:32;;;;;;;1999.90;999.90;;;;;;;-0.73;46.22;100222.31;4913998;28;99039;-77
2022/03/30 04:56:00;;;;;;;1999.90;999.90;;;;;;;-0.73;46.83;100217.09;4917141;28;97307;-77
2022/03/30 04:58:27;;;;;;;1999.90;999.90;;;;;;;-0.72;47.04;100216.25;4919254;28;97108;-76
2022/03/30 05:00:55;;;;;;;1999.90;999.90;;;;;;;-0.71;46.35;100219.78;4917960;28;99336;-76
2022/03/30 05:03:24;;;;;;;1999.90;999.90;;;;;;;-0.74;46.38;100215.31;4920031;28;99231;-74
2022/03/30 05:05:52;;;;;;;1999.90;999.90;;;;;;;-0.76;46.74;100209.09;4920170;28;96843;-74
2022/03/30 05:08:20;;;;;;;1999.90;999.90;;;;;;;-0.78;46.80;100210.72;4921037;28;97350;-76
2022/03/30 05:10:47;;;;;;;1999.90;999.90;;;;;;;-0.80;46.79;100214.94;4919245;28;97649;-77
2022/03/30 05:13:15;;;;;;;1999.90;999.90;;;;;;;-0.82;46.93;100212.25;4919511;28;99256;-75
2022/03/30 05:15:43;;;;;;;1999.90;999.90;;;;;;;-0.83;47.02;100206.94;4902206;28;98880;-74
2022/03/30 05:18:11;;;;;;;1999.90;999.90;;;;;;;-0.83;47.03;100206.94;4926691;28;97515;-76
2022/03/30 05:20:44;;;;;;;1999.90;999.90;;;;;;;-0.86;46.68;100217.19;4915124;28;98825;-76
2022/03/30 05:23:11;;;;;;;1999.90;999.90;;;;;;;-0.86;47.04;100214.56;4918852;28;98078;-77
2022/03/30 05:25:39;;;;;;;1999.90;999.90;;;;;;;-0.85;47.16;100214.66;4920248;28;96941;-76
2022/03/30 05:28:07;;;;;;;1999.90;999.90;;;;;;;-0.88;47.06;100217.13;4903191;28;97755;-76
2022/03/30 05:30:36;;;;;;;1999.90;999.90;;;;;;;-0.85;47.00;100214.66;4919056;28;97719;-75
2022/03/30 05:33:04;;;;;;;1999.90;999.90;;;;;;;-0.83;46.82;100213.03;4916717;28;102010;-75
2022/03/30 05:35:31;;;;;;;1999.90;999.90;;;;;;;-0.80;46.57;100212.31;4917836;28;97881;-76
2022/03/30 05:38:01;;;;;;;1999.90;999.90;;;;;;;-0.77;47.10;100222.94;4917855;28;97846;-75
2022/03/30 05:40:28;;;;;;;1999.90;999.90;;;;;;;-0.75;46.46;100213.47;4920728;28;99080;-75
2022/03/30 05:42:57;;;;;;;1999.90;999.90;;;;;;;-0.73;46.82;100219.69;4922054;28;98701;-77
2022/03/30 05:45:24;;;;;;;1999.90;999.90;;;;;;;-0.71;46.52;100225.91;4917302;28;98529;-77
2022/03/30 05:47:52;;;;;;;1999.90;999.90;;;;;;;-0.70;46.49;100219.84;4919639;28;98219;-76
2022/03/30 05:50:23;;;;;;;1999.90;999.90;;;;;;;-0.68;46.63;100222.59;4919591;28;98526;-76
2022/03/30 05:52:51;;;;;;;1999.90;999.90;;;;;;;-0.67;46.67;100219.16;4918227;28;98497;-72
2022/03/30 05:55:20;;;;;;;1999.90;999.90;;;;;;;-0.65;46.73;100205.38;4925888;28;97716;-75
2022/03/30 05:57:48;;;;;;;1999.90;999.90;;;;;;;-0.62;46.75;100202.00;4923090;28;98024;-77
2022/03/30 06:00:16;;;;;;;1999.90;999.90;;;;;;;-0.58;46.78;100198.75;4921321;28;99266;-74
2022/03/30 06:02:43;;;;;;;1999.90;999.90;;;;;;;-0.55;46.78;100198.91;4920758;28;97283;-76
2022/03/30 06:05:12;;;;;;;1999.90;999.90;;;;;;;-0.53;46.92;100192.97;4917905;28;98147;-76
2022/03/30 06:07:40;;;;;;;1999.90;999.90;;;;;;;-0.51;46.65;100191.34;4917399;28;97811;-73
2022/03/30 06:10:09;;;;;;;1999.90;999.90;;;;;;;-0.48;46.54;100190.63;4913969;28;98112;-75
2022/03/30 06:12:38;;;;;;;1999.90;999.90;;;;;;;-0.44;46.76;100193.50;4915964;28;99155;-76
2022/03/30 06:15:07;;;;;;;1999.90;999.90;;;;;;;-0.40;46.88;100195.47;4915830;28;97104;-76
2022/03/30 06:17:35;;;;;;;1999.90;999.90;;;;;;;-0.36;46.65;100191.28;4917826;28;97540;-73
2022/03/30 06:20:04;;;;;;;1999.90;999.90;;;;;;;-0.33;46.50;100197.59;4919652;28;98815;-77
2022/03/30 06:22:32;;;;;;;1999.90;999.90;;;;;;;-0.31;46.39;100185.50;4918253;28;99803;-74
2022/03/30 06:25:00;;;;;;;1999.90;999.90;;;;;;;-0.29;46.45;100189.09;4920131;28;98392;-73
2022/03/30 06:27:28;;;;;;;1999.90;999.90;;;;;;;-0.25;46.42;100192.78;4919950;28;98409;-74
2022/03/30 06:29:57;;;;;;;1999.90;999.90;;;;;;;-0.21;46.60;100190.41;4920325;28;97617;-77
2022/03/30 06:32:25;;;;;;;1999.90;999.90;;;;;;;-0.15;46.36;100193.34;4918318;28;97653;-76
2022/03/30 06:34:53;;;;;;;1999.90;999.90;;;;;;;-0.09;46.43;100191.09;4919252;28;97704;-76
2022/03/30 06:37:20;;;;;;;1999.90;999.90;;;;;;;-0.07;46.45;100191.16;4920936;28;97579;-77
2022/03/30 06:39:49;;;;;;;1999.90;999.90;;;;;;;-0.06;46.26;100195.56;4918936;28;97465;-78
2022/03/30 06:42:17;;;;;;;1999.90;999.90;;;;;;;-0.01;46.34;100199.34;4917928;28;98260;-76
2022/03/30 06:44:45;;;;;;;1999.90;999.90;;;;;;;0.02;46.01;100195.19;4918949;28;97250;-75
2022/03/30 06:47:14;;;;;;;1999.90;999.90;;;;;;;0.06;46.06;100194.50;4917627;28;97148;-75
2022/03/30 06:49:42;;;;;;;1999.90;999.90;;;;;;;0.09;46.03;100189.44;4918135;28;99204;-77
2022/03/30 06:52:11;;;;;;;1999.90;999.90;;;;;;;0.14;46.19;100193.19;4918737;28;99218;-77
2022/03/30 06:54:39;;;;;;;1999.90;999.90;;;;;;;0.18;46.18;100192.56;4920345;28;97648;-76
2022/03/30 06:57:07;;;;;;;1999.90;999.90;;;;;;;0.20;46.11;100175.22;4920842;28;97391;-75
2022/03/30 06:59:35;;;;;;;1999.90;999.90;;;;;;;0.23;46.20;100173.59;4920724;28;97623;-73
2022/03/30 07:02:03;;;;;;;1999.90;999.90;;;;;;;0.27;46.10;100180.78;4915295;28;100300;-75
2022/03/30 07:04:34;;;;;;;1999.90;999.90;;;;;;;0.28;45.86;100179.97;4918258;28;96926;-73
2022/03/30 07:12:34;;;;;;;1999.90;999.90;;;;;;;0.37;45.76;100180.47;4911372;28;99433;-75
2022/03/30 07:15:01;;;;;;;1999.90;999.90;;;;;;;0.40;45.91;100178.00;4918053;28;97248;-76
2022/03/30 07:17:30;;;;;;;1999.90;999.90;;;;;;;0.45;45.80;100181.78;4920057;28;97190;-76
2022/03/30 07:20:00;;;;;;;1999.90;999.90;;;;;;;0.49;45.63;100181.09;4917325;28;98947;-74
2022/03/30 07:22:27;;;;;;;1999.90;999.90;;;;;;;0.50;45.64;100173.34;4915619;28;101713;-76
2022/03/30 07:24:55;;;;;;;1999.90;999.90;;;;;;;0.54;45.74;100174.38;4919539;28;97455;-76
2022/03/30 07:27:23;;;;;;;1999.90;999.90;;;;;;;0.56;45.52;100173.63;4916982;28;97788;-74
2022/03/30 07:29:51;;;;;;;1999.90;999.90;;;;;;;0.57;45.45;100172.81;4926511;28;99737;-75
2022/03/30 07:32:19;;;;;;;1999.90;999.90;;;;;;;0.62;45.59;100170.41;4915511;28;100035;-74
2022/03/30 07:34:49;;;;;;;1999.90;999.90;;;;;;;0.66;45.61;100175.00;4917069;28;97585;-74
2022/03/30 07:37:18;;;;;;;1999.90;999.90;;;;;;;0.69;45.56;100176.06;4920383;28;98104;-77
2022/03/30 07:39:46;;;;;;;1999.90;999.90;;;;;;;0.72;45.81;100168.34;4919414;28;101712;-74
2022/03/30 07:42:14;;;;;;;1999.90;999.90;;;;;;;0.75;45.46;100168.50;4921904;28;99733;-75
2022/03/30 07:44:42;;;;;;;1999.90;999.90;;;;;;;0.80;45.24;100163.50;4927198;28;97565;-76
2022/03/30 07:47:09;;;;;;;1999.90;999.90;;;;;;;0.82;45.63;100160.13;4919209;28;98174;-76
2022/03/30 07:49:37;;;;;;;1999.90;999.90;;;;;;;0.84;45.66;100160.22;4921948;28;99073;-75
2022/03/30 07:52:06;;;;;;;1999.90;999.90;;;;;;;0.87;45.89;100162.97;4916462;28;98808;-77
2022/03/30 07:54:35;;;;;;;1999.90;999.90;;;;;;;0.93;45.65;100155.44;4917618;28;97632;-77
2022/03/30 07:57:03;;;;;;;1999.90;999.90;;;;;;;0.95;45.23;100154.69;4916449;28;97607;-75
2022/03/30 07:59:31;;;;;;;1999.90;999.90;;;;;;;1.00;45.43;100154.91;4918167;28;98911;-76
2022/03/30 08:01:59;;;;;;;1999.90;999.90;;;;;;;1.04;45.28;100156.84;4911948;28;98358;-74
2022/03/30 08:04:26;;;;;;;1999.90;999.90;;;;;;;1.06;45.01;100153.50;4916690;28;98027;-75
2022/03/30 08:06:54;;;;;;;1999.90;999.90;;;;;;;1.11;45.18;100153.69;4915440;28;97129;-74
2022/03/30 08:09:22;;;;;;;1999.90;999.90;;;;;;;1.18;44.94;100167.19;4918830;28;98867;-75
2022/03/30 08:11:52;;;;;;;1999.90;999.90;;;;;;;1.24;45.13;100163.97;4907830;28;98870;-75
2022/03/30 08:14:25;;;;;;;1999.90;999.90;;;;;;;1.32;44.89;100161.72;4916766;28;97524;-75
2022/03/30 08:16:53;;;;;;;1999.90;999.90;;;;;;;1.38;44.94;100160.25;4918538;28;98428;-75
2022/03/30 08:19:21;;;;;;;1999.90;999.90;;;;;;;1.46;44.75;100163.25;4917228;28;97885;-75
2022/03/30 08:24:34;;;;;;;1999.90;999.90;;;;;;;1.53;44.71;100157.47;4916268;28;97143;-74
2022/03/30 08:27:05;;;;;;;1999.90;999.90;;;;;;;1.55;44.58;100154.09;4916216;28;98008;-76
2022/03/30 08:29:32;;;;;;;1999.90;999.90;;;;;;;1.58;44.16;100161.22;4916719;28;97723;-75
2022/03/30 08:32:00;;;;;;;1999.90;999.90;;;;;;;1.62;44.55;100166.69;4912629;28;100304;-73
2022/03/30 08:34:34;;;;;;;1999.90;999.90;;;;;;;1.69;44.40;100165.25;4925581;28;96985;-74
2022/03/30 08:37:02;;;;;;;1999.90;999.90;;;;;;;1.76;44.07;100162.97;4917948;28;98086;-74
2022/03/30 08:39:31;;;;;;;1999.90;999.90;;;;;;;1.80;44.16;100164.91;4917095;28;100418;-74
2022/03/30 08:41:58;;;;;;;1999.90;999.90;;;;;;;1.86;44.16;100159.03;4912418;28;104168;-72
2022/03/30 08:44:27;;;;;;;1999.90;999.90;;;;;;;1.92;44.08;100151.47;4918156;28;98487;-74
2022/03/30 08:46:55;;;;;;;1999.90;999.90;;;;;;;1.96;43.83;100146.41;4913418;28;97842;-75
2022/03/30 08:49:23;;;;;;;1999.90;999.90;;;;;;;2.03;43.42;100147.59;4915540;28;97437;-76
2022/03/30 08:51:51;;;;;;;1999.90;999.90;;;;;;;2.08;44.01;100157.47;4915773;28;101617;-75
2022/03/30 08:54:20;;;;;;;1999.90;999.90;;;;;;;2.15;43.84;100154.31;4917819;28;97010;-75
2022/03/30 08:56:48;;;;;;;1999.90;999.90;;;;;;;2.18;43.55;100153.56;4918685;28;98630;-75
2022/03/30 08:59:18;;;;;;;1999.90;999.90;;;;;;;2.23;43.34;100148.50;4919210;28;97800;-76
2022/03/30 09:01:49;;;;;;;1999.90;999.90;;;;;;;2.28;43.58;100145.25;4917101;28;98787;-77
2022/03/30 09:04:19;;;;;;;1999.90;999.90;;;;;;;2.35;43.23;100141.16;4915624;28;97760;-76
2022/03/30 09:06:49;;;;;;;1999.90;999.90;;;;;;;2.40;43.05;100137.03;4917597;28;97753;-76
2022/03/30 09:09:27;;;;;;;1999.90;999.90;;;;;;;2.47;43.06;100136.44;4914420;28;97956;-74
2022/03/30 09:11:55;;;;;;;1999.90;999.90;;;;;;;2.53;43.49;100116.59;4924460;28;99964;-76
2022/03/30 09:14:26;;;;;;;1999.90;999.90;;;;;;;2.63;42.60;100120.50;4917684;28;98786;-75
2022/03/30 09:16:56;;;;;;;1999.90;999.90;;;;;;;2.70;43.15;100115.59;4919127;28;99004;-76
2022/03/30 09:19:24;;;;;;;1999.90;999.90;;;;;;;2.77;43.22;100121.97;4919306;28;97641;-77
2022/03/30 09:21:54;;;;;;;1999.90;999.90;;;;;;;2.85;42.53;100107.44;4920523;28;97801;-76
2022/03/30 09:24:24;;;;;;;1999.90;999.90;;;;;;;2.94;42.62;100111.34;4919735;28;96810;-79
2022/03/30 09:26:53;;;;;;;1999.90;999.90;;;;;;;3.01;42.58;100120.34;4921191;28;96901;-78
2022/03/30 09:29:21;;;;;;;1999.90;999.90;;;;;;;3.07;42.73;100124.16;4922024;28;97689;-76
2022/03/30 09:32:07;;;;;;;1999.90;999.90;;;;;;;3.12;42.12;100116.44;4920492;28;97730;-77
2022/03/30 09:34:36;;;;;;;1999.90;999.90;;;;;;;3.17;42.50;100125.41;4918447;28;97204;-77
2022/03/30 09:37:11;;;;;;;1999.90;999.90;;;;;;;3.19;42.01;100118.47;4917774;28;98126;-77
2022/03/30 09:39:45;;;;;;;1999.90;999.90;;;;;;;3.23;41.84;100118.66;4920418;28;99119;-81
2022/03/30 09:42:14;;;;;;;1999.90;999.90;;;;;;;3.25;41.81;100118.72;4917466;28;98722;-78
2022/03/30 09:44:47;;;;;;;1999.90;999.90;;;;;;;3.25;41.97;100121.34;4917105;28;97230;-77
2022/03/30 09:47:17;;;;;;;1999.90;999.90;;;;;;;3.27;42.13;100117.06;4920907;28;99767;-76
2022/03/30 09:49:47;;;;;;;1999.90;999.90;;;;;;;3.31;41.98;100121.59;4922520;28;98776;-77
2022/03/30 09:52:17;;;;;;;1999.90;999.90;;;;;;;3.35;41.73;100115.59;4919257;28;99688;-77
2022/03/30 09:54:49;;;;;;;1999.90;999.90;;;;;;;3.40;41.44;100110.53;4920526;28;98491;-75
2022/03/30 09:57:20;;;;;;;1999.90;999.90;;;;;;;3.42;41.78;100100.97;4923695;28;97375;-74
2022/03/30 10:00:04;;;;;;;1999.90;999.90;;;;;;;3.43;41.26;100103.66;4921937;28;98053;-78
2022/03/30 10:02:38;;;;;;;1999.90;999.90;;;;;;;3.43;41.72;100103.66;4922924;28;100393;-77
2022/03/30 10:05:08;;;;;;;1999.90;999.90;;;;;;;3.43;41.38;100103.66;4920558;28;97186;-78
2022/03/30 10:07:36;;;;;;;1999.90;999.90;;;;;;;3.49;41.45;100092.50;4924510;28;97992;-78
2022/03/30 10:10:05;;;;;;;1999.90;999.90;;;;;;;3.54;41.68;100089.19;4923285;28;97958;-76
2022/03/30 10:12:33;;;;;;;1999.90;999.90;;;;;;;3.55;41.67;100088.34;4937428;28;100390;-76
2022/03/30 10:15:06;;;;;;;1999.90;999.90;;;;;;;3.54;41.58;100085.66;4920532;28;97336;-78
2022/03/30 10:17:34;;;;;;;1999.90;999.90;;;;;;;3.60;41.84;100086.81;4922310;28;97475;-76
2022/03/30 10:20:05;;;;;;;1999.90;999.90;;;;;;;3.66;40.86;100081.78;4923834;28;97628;-74
2022/03/30 10:22:50;;;;;;;1999.90;999.90;;;;;;;3.74;40.83;100080.34;4921696;28;99340;-77
2022/03/30 10:25:27;;;;;;;1999.90;999.90;;;;;;;3.82;40.75;100078.91;4920898;28;97005;-74
2022/03/30 10:27:57;;;;;;;1999.90;999.90;;;;;;;3.89;40.59;100075.66;4924273;28;98743;-76
2022/03/30 10:30:26;;;;;;;1999.90;999.90;;;;;;;3.93;40.84;100064.38;4918800;28;97620;-76
2022/03/30 10:32:56;;;;;;;1999.90;999.90;;;;;;;4.00;40.46;100060.25;4918862;28;97709;-77
2022/03/30 10:35:37;;;;;;;1999.90;999.90;;;;;;;4.07;40.11;100062.25;4920175;28;98759;-77
2022/03/30 10:38:05;;;;;;;1999.90;999.90;;;;;;;4.12;40.30;100056.31;4921630;28;99216;-76
2022/03/30 10:40:34;;;;;;;1999.90;999.90;;;;;;;4.18;40.32;100059.16;4920276;28;98025;-76
2022/03/30 10:43:10;;;;;;;1999.90;999.90;;;;;;;4.26;40.06;100062.06;4918033;28;100350;-76
2022/03/30 10:45:48;;;;;;;1999.90;999.90;;;;;;;4.29;40.11;100061.25;4916796;28;97718;-77
2022/03/30 10:48:19;;;;;;;1999.90;999.90;;;;;;;4.36;40.09;100050.09;4899876;28;97814;-75
2022/03/30 10:50:51;;;;;;;1999.90;999.90;;;;;;;4.41;40.05;100057.31;4917057;28;97834;-77
2022/03/30 10:53:43;;;;;;;1999.90;999.90;;;;;;;4.47;39.40;100049.63;4919492;28;100419;-75
2022/03/30 10:56:32;;;;;;;1999.90;999.90;;;;;;;4.40;39.46;100044.09;4907908;28;97149;-75
2022/03/30 10:59:10;;;;;;;1999.90;999.90;;;;;;;4.42;39.67;100042.41;4920865;28;98562;-75
2022/03/30 11:01:41;;;;;;;1999.90;999.90;;;;;;;4.45;40.01;100043.41;4918665;28;99390;-76
2022/03/30 11:04:17;;;;;;;1999.90;999.90;;;;;;;4.51;39.63;100037.44;4916877;28;99677;-76
2022/03/30 11:06:47;;;;;;;1999.90;999.90;;;;;;;4.56;39.53;100041.13;4920675;28;98157;-76
2022/03/30 11:09:23;;;;;;;1999.90;999.90;;;;;;;4.64;39.34;100044.91;4921072;28;97456;-76
2022/03/30 11:11:59;;;;;;;1999.90;999.90;;;;;;;4.72;39.20;100040.78;4920185;28;98812;-75